createdAt,value
2022-10-31T00:01:42.460Z,14.10
2022-10-31T00:05:24.389Z,14.20
2022-10-31T00:09:06.481Z,14.20
2022-10-31T00:12:48.295Z,14.20
2022-10-31T00:16:31.220Z,14.20
2022-10-31T00:20:12.970Z,14.20
2022-10-31T00:23:54.809Z,14.20
2022-10-31T00:27:36.555Z,14.20
2022-10-31T00:31:18.419Z,14.20
2022-10-31T00:35:00.219Z,14.20
2022-10-31T00:38:43.278Z,14.20
2022-10-31T00:42:25.094Z,14.10
2022-10-31T00:46:06.886Z,14.10
2022-10-31T00:49:48.659Z,14.00
2022-10-31T00:53:30.459Z,14.00
2022-10-31T00:57:12.243Z,13.90
2022-10-31T01:00:57.326Z,13.90
2022-10-31T01:04:39.234Z,13.90
2022-10-31T01:08:21.001Z,13.80
2022-10-31T01:12:02.822Z,13.80
2022-10-31T01:15:44.611Z,13.80
2022-10-31T01:19:26.395Z,13.70
2022-10-31T01:23:08.149Z,13.70
2022-10-31T01:26:50.042Z,13.70
2022-10-31T01:30:32.713Z,13.60
2022-10-31T01:34:16.914Z,13.60
2022-10-31T01:37:58.721Z,13.60
2022-10-31T01:41:46.311Z,13.70
2022-10-31T01:45:28.090Z,13.60
2022-10-31T01:49:17.933Z,13.60
2022-10-31T01:53:01.894Z,13.70
2022-10-31T01:56:53.933Z,13.70
2022-10-31T02:00:35.860Z,13.70
2022-10-31T02:04:19.689Z,13.70
2022-10-31T02:08:14.709Z,13.80
2022-10-31T02:11:58.782Z,13.80
2022-10-31T02:15:41.995Z,13.90
2022-10-31T02:20:05.265Z,13.90
2022-10-31T02:24:20.672Z,14.00
2022-10-31T02:28:40.214Z,14.00
2022-10-31T02:32:33.083Z,14.10
2022-10-31T02:36:22.873Z,14.00
2022-10-31T02:40:27.867Z,14.00
2022-10-31T02:44:40.763Z,14.00
2022-10-31T02:48:28.888Z,14.00
2022-10-31T02:52:22.729Z,14.00
2022-10-31T02:56:19.225Z,14.10
2022-10-31T03:00:07.253Z,14.00
2022-10-31T03:04:04.102Z,14.00
2022-10-31T03:08:01.738Z,14.00
2022-10-31T03:11:58.076Z,14.00
2022-10-31T03:15:46.385Z,14.00
2022-10-31T03:19:33.391Z,14.00
2022-10-31T03:23:16.710Z,14.00
2022-10-31T03:27:00.803Z,14.00
2022-10-31T03:30:45.338Z,14.10
2022-10-31T03:34:29.277Z,14.10
2022-10-31T03:38:12.214Z,14.10
2022-10-31T03:42:08.598Z,14.20
2022-10-31T03:45:50.566Z,14.20
2022-10-31T03:49:33.828Z,14.20
2022-10-31T03:53:33.915Z,14.30
2022-10-31T03:57:26.303Z,14.30
2022-10-31T04:01:12.560Z,14.30
2022-10-31T04:04:55.025Z,14.30
2022-10-31T04:08:45.381Z,14.30
2022-10-31T04:12:30.554Z,14.40
2022-10-31T04:16:17.006Z,14.50
2022-10-31T04:20:02.522Z,14.40
2022-10-31T04:23:44.333Z,14.50
2022-10-31T04:27:26.493Z,14.50
2022-10-31T04:31:11.625Z,14.50
2022-10-31T04:34:53.427Z,14.60
2022-10-31T04:38:35.412Z,14.60
2022-10-31T04:42:17.212Z,14.60
2022-10-31T04:45:59.031Z,14.60
2022-10-31T04:49:40.887Z,14.60
2022-10-31T04:53:22.729Z,14.60
2022-10-31T04:57:04.517Z,14.70
2022-10-31T05:00:46.387Z,14.60
2022-10-31T05:04:28.283Z,14.60
2022-10-31T05:08:10.043Z,14.60
2022-10-31T05:11:51.801Z,14.60
2022-10-31T05:15:33.744Z,14.50
2022-10-31T05:19:15.626Z,14.50
2022-10-31T05:22:58.646Z,14.50
2022-10-31T05:26:40.503Z,14.40
2022-10-31T05:30:25.461Z,14.40
2022-10-31T05:34:07.250Z,14.40
2022-10-31T05:37:49.115Z,14.40
2022-10-31T05:41:30.927Z,14.50
2022-10-31T05:45:15.364Z,14.40
2022-10-31T05:49:00.202Z,14.40
2022-10-31T05:52:44.547Z,14.50
2022-10-31T05:56:26.319Z,14.40
2022-10-31T06:00:08.871Z,14.30
2022-10-31T06:03:50.751Z,14.30
2022-10-31T06:07:36.386Z,14.30
2022-10-31T06:11:18.268Z,14.30
2022-10-31T06:15:00.033Z,14.30
2022-10-31T06:18:41.880Z,14.30
2022-10-31T06:22:23.821Z,14.20
2022-10-31T06:26:05.771Z,14.30
2022-10-31T06:29:48.052Z,14.20
2022-10-31T06:33:29.919Z,14.10
2022-10-31T06:37:13.224Z,14.10
2022-10-31T06:40:55.534Z,14.10
2022-10-31T06:44:37.293Z,14.10
2022-10-31T06:48:19.108Z,14.00
2022-10-31T06:52:00.953Z,14.00
2022-10-31T06:55:43.546Z,13.90
2022-10-31T06:59:25.462Z,13.90
2022-10-31T07:03:11.926Z,13.90
2022-10-31T07:06:53.885Z,13.90
2022-10-31T07:10:40.203Z,13.90
2022-10-31T07:14:22.610Z,13.80
2022-10-31T07:18:06.544Z,13.90
2022-10-31T07:21:48.334Z,13.80
2022-10-31T07:25:30.305Z,13.80
2022-10-31T07:29:12.168Z,13.70
2022-10-31T07:32:54.284Z,13.80
2022-10-31T07:36:36.124Z,13.80
2022-10-31T07:40:18.970Z,13.80
2022-10-31T07:44:00.778Z,13.80
2022-10-31T07:47:47.404Z,13.80
2022-10-31T07:51:29.226Z,13.80
2022-10-31T07:55:11.848Z,13.80
2022-10-31T07:58:53.689Z,13.90
2022-10-31T08:02:35.674Z,13.90
2022-10-31T08:06:17.484Z,14.00
2022-10-31T08:09:59.325Z,14.10
2022-10-31T08:13:41.270Z,14.10
2022-10-31T08:17:23.062Z,14.20
2022-10-31T08:21:04.881Z,14.20
2022-10-31T08:24:46.678Z,14.40
2022-10-31T08:28:28.489Z,14.50
2022-10-31T08:32:10.267Z,14.60
2022-10-31T08:35:52.054Z,14.70
2022-10-31T08:39:33.855Z,14.80
2022-10-31T08:43:17.199Z,14.90
2022-10-31T08:46:58.983Z,15.00
2022-10-31T08:50:42.026Z,15.10
2022-10-31T08:54:23.824Z,15.20
2022-10-31T08:58:07.672Z,15.40
2022-10-31T09:01:50.891Z,15.50
2022-10-31T09:05:33.623Z,15.70
2022-10-31T09:09:15.484Z,15.80
2022-10-31T09:13:11.663Z,16.00
2022-10-31T09:16:53.715Z,16.50
2022-10-31T09:20:36.881Z,17.00
2022-10-31T09:24:18.657Z,17.30
2022-10-31T09:28:02.303Z,17.50
2022-10-31T09:31:45.217Z,17.60
2022-10-31T09:35:27.997Z,17.50
2022-10-31T09:39:09.943Z,17.50
2022-10-31T09:43:05.282Z,17.30
2022-10-31T09:47:06.213Z,17.20
2022-10-31T09:50:59.680Z,17.10
2022-10-31T09:54:53.581Z,17.00
2022-10-31T09:58:44.183Z,17.00
2022-10-31T10:02:44.331Z,17.00
2022-10-31T10:06:30.037Z,17.00
2022-10-31T10:10:35.496Z,17.10
2022-10-31T10:14:20.229Z,17.10
2022-10-31T10:18:29.153Z,17.20
2022-10-31T10:22:25.655Z,17.30
2022-10-31T10:26:37.750Z,17.60
2022-10-31T10:30:29.485Z,18.20
2022-10-31T10:34:35.723Z,18.60
2022-10-31T10:38:26.577Z,18.90
2022-10-31T10:42:34.311Z,19.00
2022-10-31T10:46:46.002Z,19.00
2022-10-31T10:50:37.028Z,18.90
2022-10-31T10:54:27.925Z,18.80
2022-10-31T10:58:11.458Z,18.60
2022-10-31T11:01:53.706Z,18.40
2022-10-31T11:05:43.767Z,18.30
2022-10-31T11:09:25.579Z,18.20
2022-10-31T11:13:22.505Z,18.30
2022-10-31T11:17:28.999Z,18.40
2022-10-31T11:21:28.356Z,18.50
2022-10-31T11:25:28.321Z,18.60
2022-10-31T11:29:26.477Z,18.70
2022-10-31T11:33:32.538Z,18.60
2022-10-31T11:37:18.094Z,18.70
2022-10-31T11:41:11.700Z,18.80
2022-10-31T11:44:54.820Z,19.00
2022-10-31T11:48:37.698Z,19.20
2022-10-31T11:52:26.509Z,19.30
2022-10-31T11:56:16.814Z,19.40
2022-10-31T12:00:01.002Z,19.60
2022-10-31T12:04:00.749Z,19.80
2022-10-31T12:07:43.601Z,20.60
2022-10-31T12:11:31.222Z,21.50
2022-10-31T12:15:18.944Z,22.70
2022-10-31T12:19:22.727Z,23.70
2022-10-31T12:23:22.930Z,24.50
2022-10-31T12:27:07.413Z,25.20
2022-10-31T12:31:40.228Z,25.70
2022-10-31T12:35:28.210Z,25.80
2022-10-31T12:39:25.789Z,25.70
2022-10-31T12:43:45.241Z,25.90
2022-10-31T12:48:17.791Z,25.80
2022-10-31T12:52:11.569Z,25.40
2022-10-31T12:55:53.323Z,24.80
2022-10-31T12:59:46.027Z,24.40
2022-10-31T13:04:00.092Z,24.30
2022-10-31T13:07:47.273Z,24.20
2022-10-31T13:11:46.344Z,23.50
2022-10-31T13:15:33.959Z,22.80
2022-10-31T13:19:18.169Z,22.40
2022-10-31T13:23:49.055Z,22.10
2022-10-31T13:27:27.867Z,22.90
2022-10-31T13:31:10.045Z,23.90
2022-10-31T13:34:56.605Z,23.90
2022-10-31T13:38:58.651Z,23.80
2022-10-31T13:43:20.605Z,23.40
2022-10-31T13:47:02.423Z,22.80
2022-10-31T13:50:56.617Z,22.20
2022-10-31T13:54:47.509Z,21.70
2022-10-31T13:58:31.387Z,21.40
2022-10-31T14:02:19.018Z,21.10
2022-10-31T14:06:01.335Z,20.80
2022-10-31T14:10:06.703Z,20.60
2022-10-31T14:13:48.519Z,20.20
2022-10-31T14:17:36.243Z,20.00
2022-10-31T14:21:23.821Z,19.90
2022-10-31T14:25:27.557Z,19.70
2022-10-31T14:29:15.388Z,19.60
2022-10-31T14:33:03.216Z,19.60
2022-10-31T14:37:00.080Z,19.40
2022-10-31T14:40:53.237Z,19.20
2022-10-31T14:44:44.172Z,19.10
2022-10-31T14:48:54.101Z,19.00
2022-10-31T14:52:38.235Z,18.70
2022-10-31T14:56:35.416Z,18.50
2022-10-31T15:00:22.617Z,18.30
2022-10-31T15:04:25.058Z,18.10
2022-10-31T15:08:26.466Z,18.00
2022-10-31T15:12:26.304Z,17.90
2022-10-31T15:16:11.556Z,17.90
2022-10-31T15:19:54.308Z,17.90
2022-10-31T15:23:36.578Z,17.90
2022-10-31T15:27:19.274Z,18.00
2022-10-31T15:31:02.893Z,17.90
2022-10-31T15:34:45.536Z,18.00
2022-10-31T15:38:29.046Z,18.00
2022-10-31T15:42:21.929Z,17.90
2022-10-31T15:46:05.185Z,17.90
2022-10-31T15:49:55.464Z,17.70
2022-10-31T15:53:44.696Z,17.70
2022-10-31T15:57:29.602Z,17.60
2022-10-31T16:01:31.440Z,17.60
2022-10-31T16:05:19.205Z,17.50
2022-10-31T16:09:01.517Z,17.50
2022-10-31T16:12:46.280Z,17.50
2022-10-31T16:16:35.244Z,17.40
2022-10-31T16:20:29.960Z,17.30
2022-10-31T16:24:23.712Z,17.30
2022-10-31T16:32:02.148Z,17.10
2022-10-31T16:35:43.938Z,17.10
2022-10-31T16:39:25.735Z,17.10
2022-10-31T16:43:13.184Z,17.10
2022-10-31T16:47:14.794Z,17.00
2022-10-31T16:50:56.747Z,17.00
2022-10-31T16:54:38.619Z,16.90
2022-10-31T16:58:30.793Z,16.90
2022-10-31T17:02:16.754Z,16.80
2022-10-31T17:05:58.605Z,16.70
2022-10-31T17:09:40.388Z,16.60
2022-10-31T17:13:25.737Z,16.50
2022-10-31T17:17:09.022Z,16.40
2022-10-31T17:20:51.651Z,16.30
2022-10-31T17:24:33.423Z,16.30
2022-10-31T17:28:15.466Z,16.20
2022-10-31T17:32:01.340Z,16.20
2022-10-31T17:35:45.026Z,16.20
2022-10-31T17:39:27.171Z,16.20
2022-10-31T17:43:10.752Z,16.10
2022-10-31T17:46:52.617Z,16.10
2022-10-31T17:50:34.651Z,16.00
2022-10-31T17:54:19.047Z,16.10
2022-10-31T17:58:00.809Z,15.90
2022-10-31T18:01:42.774Z,15.90
2022-10-31T18:05:24.851Z,15.90
2022-10-31T18:09:07.176Z,15.90
2022-10-31T18:12:49.003Z,15.90
2022-10-31T18:16:30.924Z,15.90
2022-10-31T18:20:13.080Z,15.90
2022-10-31T18:24:02.963Z,15.90
2022-10-31T18:27:44.756Z,15.90
2022-10-31T18:31:26.798Z,15.70
2022-10-31T18:35:08.879Z,15.80
2022-10-31T18:38:50.791Z,15.70
2022-10-31T18:42:32.597Z,15.70
2022-10-31T18:46:15.978Z,15.70
2022-10-31T18:49:57.816Z,15.70
2022-10-31T18:53:39.843Z,15.70
2022-10-31T18:57:21.669Z,15.80
2022-10-31T19:01:11.908Z,15.80
2022-10-31T19:04:53.745Z,15.80
2022-10-31T19:08:36.417Z,15.80
2022-10-31T19:12:18.180Z,15.70
2022-10-31T19:16:14.758Z,15.80
2022-10-31T19:19:56.622Z,15.80
2022-10-31T19:23:39.131Z,15.90
2022-10-31T19:27:20.933Z,15.80
2022-10-31T19:31:03.731Z,15.80
2022-10-31T19:34:45.574Z,15.80
2022-10-31T19:38:29.051Z,15.80
2022-10-31T19:42:11.017Z,15.90
2022-10-31T19:45:57.487Z,15.70
2022-10-31T19:49:39.258Z,15.80
2022-10-31T19:53:21.299Z,15.70
2022-10-31T19:57:03.053Z,15.70
2022-10-31T20:00:44.939Z,15.80
2022-10-31T20:04:26.969Z,15.80
2022-10-31T20:08:15.678Z,15.80
2022-10-31T20:11:57.575Z,15.70
2022-10-31T20:15:39.415Z,15.70
2022-10-31T20:19:21.520Z,15.70
2022-10-31T20:23:03.856Z,15.80
2022-10-31T20:26:46.161Z,15.60
2022-10-31T20:30:29.504Z,15.70
2022-10-31T20:34:11.791Z,15.60
2022-10-31T20:37:53.660Z,15.70
2022-10-31T20:41:39.514Z,15.70
2022-10-31T20:45:21.353Z,15.60
2022-10-31T20:49:03.850Z,15.60
2022-10-31T20:52:45.682Z,15.60
2022-10-31T20:56:28.874Z,15.60
2022-10-31T21:00:11.989Z,15.30
2022-10-31T21:03:54.130Z,15.40
2022-10-31T21:07:36.332Z,15.40
2022-10-31T21:11:21.775Z,15.30
2022-10-31T21:15:03.961Z,15.20
2022-10-31T21:18:47.071Z,15.20
2022-10-31T21:22:29.471Z,15.00
2022-10-31T21:26:17.710Z,15.10
2022-10-31T21:29:59.875Z,14.90
2022-10-31T21:33:42.984Z,14.80
2022-10-31T21:37:24.956Z,14.80
2022-10-31T21:41:08.125Z,14.70
2022-10-31T21:44:50.633Z,14.70
2022-10-31T21:48:33.202Z,14.50
2022-10-31T21:52:15.026Z,14.50
2022-10-31T21:56:01.773Z,14.40
2022-10-31T21:59:48.489Z,14.30
2022-10-31T22:03:30.351Z,14.40
2022-10-31T22:07:12.163Z,14.10
2022-10-31T22:10:53.969Z,14.10
2022-10-31T22:14:35.801Z,14.00
2022-10-31T22:18:17.588Z,14.10
2022-10-31T22:21:59.564Z,14.10
2022-10-31T22:25:41.635Z,14.10
2022-10-31T22:29:23.725Z,13.90
2022-10-31T22:33:05.695Z,14.00
2022-10-31T22:36:47.634Z,13.90
2022-10-31T22:40:29.461Z,14.00
2022-10-31T22:44:11.505Z,13.80
2022-10-31T22:47:53.306Z,13.70
2022-10-31T22:51:37.977Z,13.60
2022-10-31T22:55:19.825Z,13.50
2022-10-31T22:59:02.535Z,13.50
2022-10-31T23:02:44.351Z,13.30
2022-10-31T23:06:30.180Z,13.30
2022-10-31T23:10:12.172Z,13.30
2022-10-31T23:14:15.776Z,13.20
2022-10-31T23:17:57.776Z,13.20
2022-10-31T23:22:04.646Z,13.20
2022-10-31T23:26:04.911Z,13.10
2022-10-31T23:29:49.815Z,13.20
2022-10-31T23:33:31.695Z,13.00
2022-10-31T23:37:14.853Z,13.00
2022-10-31T23:40:56.668Z,13.00
2022-10-31T23:44:39.664Z,13.10
2022-10-31T23:48:21.682Z,13.10
2022-10-31T23:52:04.481Z,13.10
2022-10-31T23:55:46.431Z,13.20
2022-10-31T23:59:31.636Z,13.10
